Estación Meteorológica Peña el Pijo (Robertgarden) [ 12/14/19 08:39:44 CET ]

Fecha Hora Presion(HPa) Temp (°C) Humedad % Rocio (°C) Viento ( m/s) Direccion Lluvia 1Hora(mm) Lluvia 24H(mm) LLuvia Total(mm)
2019-Oct-12 01:02:05 1012.300 12.2 78 8.5         0.00
2019-Oct-12 02:01:36 1012.200 11.3 80 8.0         0.00
2019-Oct-12 03:04:18 1012.000 11.2 81 8.1         0.00
2019-Oct-12 04:01:38 1011.400 10.8 82 7.8         0.00
2019-Oct-12 05:01:44 1011.100 10.8 82 7.8         0.00
2019-Oct-12 06:01:52 1010.800 11.0 83 8.2         0.00
2019-Oct-12 07:01:52 1011.000 10.4 83 7.6         0.00
2019-Oct-12 08:01:48 1010.800 9.8 82 6.8         0.00
2019-Oct-12 09:01:44 1011.000 10.6 82 7.6         0.00
2019-Oct-12 10:01:53 1010.900 13.9 78 10.1         0.00
2019-Oct-12 11:01:58 1011.500 16.5 71 11.2         0.00
2019-Oct-12 12:01:51 1011.600 19.1 61 11.4         0.00
2019-Oct-12 13:01:33 1011.200 22.1 49 10.9         0.00
2019-Oct-12 14:01:51 1010.600 22.3 49 11.0         0.00
2019-Oct-12 15:01:50 1009.900 22.1 53 12.0         0.00
2019-Oct-12 16:01:49 1009.400 22.4 57 13.4         0.00
2019-Oct-12 17:01:52 1009.100 25.0 51 14.2         0.00
2019-Oct-12 18:02:00 1008.800 24.3 49 12.9 1.5 SW     0.00
2019-Oct-12 19:01:48 1009.000 20.4 62 12.9         0.00
2019-Oct-12 20:02:10 1009.300 17.6 72 12.5         0.00
2019-Oct-12 21:01:55 1009.700 15.3 76 11.1         0.00
2019-Oct-12 22:01:47 1010.200 13.1 79 9.5         0.00
2019-Oct-12 23:01:42 1010.500 11.7 82 8.7         0.00

Temperatura Máxima:25°    Temperatura Mínima:
Presión Máxima:1012.300 Hpa    Presión Mínima:1008.800 Hpa


Volver